Sharon, California
Current Conditions -  °F | °C
As of 1:53 PM on Monday 20 Oct 2014 (Local Time) from KMAE Reporting Station
Clear Clear  
Wind Chill: 78°   Ceiling: Unl
Heat Index: 79°   Visibility: 10mi
Dew Point: 53°   Wind: 9mph
Humidity: 42%   Direction: 330°NNW
Pressure: 29.91"   Gusts: NA
Location:  37.1043°N, 120.246°W
Report Text: KMAE 202053Z AUTO 33008KT 10SM CLR 26/12 A2991 RMK AO2 SLP126 T02560117 56017
Loading
Personal Weather Stations






























Interactive Weather Map
Tropical Storm Tracking
New forecast layout! Learn more

10-Day Weather Forecast

Advertisements
Track Severe Weather on mobile